sensor_id;sensor_type;location;lat;lon;timestamp;P1;durP1;ratioP1;P2;durP2;ratioP2
45114;SDS011;30877;43.706;10.780;2024-01-15T00:00:01;16.83;;;11.82;;
45114;SDS011;30877;43.706;10.780;2024-01-15T00:02:36;13.23;;;11.13;;
45114;SDS011;30877;43.706;10.780;2024-01-15T00:05:07;14.88;;;11.35;;
45114;SDS011;30877;43.706;10.780;2024-01-15T00:07:41;14.82;;;12.38;;
45114;SDS011;30877;43.706;10.780;2024-01-15T00:10:12;14.20;;;11.45;;
45114;SDS011;30877;43.706;10.780;2024-01-15T00:12:44;12.98;;;11.02;;
45114;SDS011;30877;43.706;10.780;2024-01-15T00:16:04;14.63;;;11.38;;
45114;SDS011;30877;43.706;10.780;2024-01-15T00:18:37;15.35;;;11.32;;
45114;SDS011;30877;43.706;10.780;2024-01-15T00:21:06;14.35;;;12.10;;
45114;SDS011;30877;43.706;10.780;2024-01-15T00:23:39;14.30;;;11.75;;
45114;SDS011;30877;43.706;10.780;2024-01-15T00:26:56;13.02;;;10.63;;
45114;SDS011;30877;43.706;10.780;2024-01-15T00:29:25;15.30;;;12.50;;
45114;SDS011;30877;43.706;10.780;2024-01-15T00:31:56;13.85;;;11.57;;
45114;SDS011;30877;43.706;10.780;2024-01-15T00:34:25;15.27;;;11.60;;
45114;SDS011;30877;43.706;10.780;2024-01-15T00:37:08;13.98;;;12.35;;
45114;SDS011;30877;43.706;10.780;2024-01-15T00:39:43;13.32;;;11.80;;
45114;SDS011;30877;43.706;10.780;2024-01-15T00:42:13;17.02;;;12.82;;
45114;SDS011;30877;43.706;10.780;2024-01-15T00:44:42;15.18;;;12.18;;
45114;SDS011;30877;43.706;10.780;2024-01-15T00:54:31;15.38;;;11.73;;
45114;SDS011;30877;43.706;10.780;2024-01-15T00:57:03;15.55;;;11.07;;
45114;SDS011;30877;43.706;10.780;2024-01-15T00:59:36;13.70;;;11.23;;
45114;SDS011;30877;43.706;10.780;2024-01-15T01:02:06;13.40;;;10.98;;
45114;SDS011;30877;43.706;10.780;2024-01-15T01:08:36;14.65;;;11.73;;
45114;SDS011;30877;43.706;10.780;2024-01-15T01:11:44;13.07;;;11.10;;
45114;SDS011;30877;43.706;10.780;2024-01-15T01:14:13;16.48;;;11.45;;
45114;SDS011;30877;43.706;10.780;2024-01-15T01:20:27;13.40;;;11.25;;
45114;SDS011;30877;43.706;10.780;2024-01-15T01:22:56;12.85;;;10.50;;
45114;SDS011;30877;43.706;10.780;2024-01-15T01:26:15;13.73;;;11.10;;
45114;SDS011;30877;43.706;10.780;2024-01-15T01:28:47;13.93;;;10.65;;
45114;SDS011;30877;43.706;10.780;2024-01-15T01:31:15;14.35;;;11.75;;
45114;SDS011;30877;43.706;10.780;2024-01-15T01:33:44;15.57;;;12.07;;
45114;SDS011;30877;43.706;10.780;2024-01-15T01:36:15;13.52;;;11.45;;
45114;SDS011;30877;43.706;10.780;2024-01-15T01:38:43;12.25;;;10.95;;
45114;SDS011;30877;43.706;10.780;2024-01-15T01:41:12;15.38;;;11.75;;
45114;SDS011;30877;43.706;10.780;2024-01-15T01:43:41;13.35;;;10.75;;
45114;SDS011;30877;43.706;10.780;2024-01-15T01:46:15;13.00;;;11.50;;
45114;SDS011;30877;43.706;10.780;2024-01-15T01:48:44;15.23;;;11.32;;
45114;SDS011;30877;43.706;10.780;2024-01-15T01:51:15;15.13;;;12.60;;
45114;SDS011;30877;43.706;10.780;2024-01-15T01:53:43;15.02;;;11.30;;
45114;SDS011;30877;43.706;10.780;2024-01-15T01:56:15;15.05;;;12.50;;
45114;SDS011;30877;43.706;10.780;2024-01-15T01:58:45;15.45;;;12.55;;
45114;SDS011;30877;43.706;10.780;2024-01-15T02:01:14;15.30;;;12.93;;
45114;SDS011;30877;43.706;10.780;2024-01-15T02:03:46;14.25;;;12.15;;
45114;SDS011;30877;43.706;10.780;2024-01-15T02:06:16;14.10;;;12.43;;
45114;SDS011;30877;43.706;10.780;2024-01-15T02:08:46;18.17;;;13.93;;
45114;SDS011;30877;43.706;10.780;2024-01-15T02:14:59;16.58;;;12.85;;
45114;SDS011;30877;43.706;10.780;2024-01-15T02:17:30;15.30;;;11.93;;
45114;SDS011;30877;43.706;10.780;2024-01-15T02:20:13;16.98;;;13.75;;
45114;SDS011;30877;43.706;10.780;2024-01-15T02:22:43;13.32;;;11.63;;
45114;SDS011;30877;43.706;10.780;2024-01-15T02:25:14;15.40;;;12.23;;
45114;SDS011;30877;43.706;10.780;2024-01-15T02:27:43;15.30;;;12.15;;
45114;SDS011;30877;43.706;10.780;2024-01-15T02:34:36;15.85;;;13.23;;
45114;SDS011;30877;43.706;10.780;2024-01-15T02:37:05;16.80;;;12.57;;
45114;SDS011;30877;43.706;10.780;2024-01-15T02:39:48;15.70;;;12.07;;
45114;SDS011;30877;43.706;10.780;2024-01-15T02:42:24;13.90;;;11.95;;
45114;SDS011;30877;43.706;10.780;2024-01-15T02:45:01;14.50;;;12.13;;
45114;SDS011;30877;43.706;10.780;2024-01-15T02:47:33;14.95;;;12.10;;
45114;SDS011;30877;43.706;10.780;2024-01-15T02:50:02;14.93;;;12.50;;
45114;SDS011;30877;43.706;10.780;2024-01-15T02:52:37;17.35;;;12.95;;
45114;SDS011;30877;43.706;10.780;2024-01-15T02:55:44;16.25;;;11.93;;
45114;SDS011;30877;43.706;10.780;2024-01-15T02:58:24;14.32;;;11.45;;
45114;SDS011;30877;43.706;10.780;2024-01-15T03:00:55;14.32;;;11.88;;
45114;SDS011;30877;43.706;10.780;2024-01-15T03:03:28;12.77;;;11.38;;
45114;SDS011;30877;43.706;10.780;2024-01-15T03:05:56;15.23;;;12.25;;
45114;SDS011;30877;43.706;10.780;2024-01-15T03:08:26;13.18;;;11.73;;
45114;SDS011;30877;43.706;10.780;2024-01-15T03:11:18;16.50;;;11.60;;
45114;SDS011;30877;43.706;10.780;2024-01-15T03:13:56;14.25;;;11.10;;
45114;SDS011;30877;43.706;10.780;2024-01-15T03:16:31;14.65;;;11.48;;
45114;SDS011;30877;43.706;10.780;2024-01-15T03:23:46;14.48;;;11.55;;
45114;SDS011;30877;43.706;10.780;2024-01-15T03:26:15;15.18;;;12.80;;
45114;SDS011;30877;43.706;10.780;2024-01-15T03:29:04;14.50;;;11.80;;
45114;SDS011;30877;43.706;10.780;2024-01-15T03:31:34;15.70;;;12.68;;
45114;SDS011;30877;43.706;10.780;2024-01-15T03:38:17;15.63;;;11.70;;
45114;SDS011;30877;43.706;10.780;2024-01-15T03:40:47;15.48;;;12.57;;
45114;SDS011;30877;43.706;10.780;2024-01-15T03:43:21;14.77;;;12.93;;
45114;SDS011;30877;43.706;10.780;2024-01-15T03:45:53;16.05;;;12.40;;
45114;SDS011;30877;43.706;10.780;2024-01-15T03:48:22;17.33;;;13.68;;
45114;SDS011;30877;43.706;10.780;2024-01-15T03:50:51;13.70;;;12.20;;
45114;SDS011;30877;43.706;10.780;2024-01-15T03:53:20;14.30;;;12.35;;
45114;SDS011;30877;43.706;10.780;2024-01-15T03:55:53;19.35;;;13.68;;
45114;SDS011;30877;43.706;10.780;2024-01-15T03:58:22;15.63;;;12.57;;
45114;SDS011;30877;43.706;10.780;2024-01-15T04:00:52;15.52;;;13.05;;
45114;SDS011;30877;43.706;10.780;2024-01-15T04:03:59;13.85;;;11.88;;
45114;SDS011;30877;43.706;10.780;2024-01-15T04:06:29;14.93;;;11.27;;
45114;SDS011;30877;43.706;10.780;2024-01-15T04:09:24;12.75;;;10.93;;
45114;SDS011;30877;43.706;10.780;2024-01-15T04:12:55;14.30;;;11.93;;
45114;SDS011;30877;43.706;10.780;2024-01-15T04:19:53;14.88;;;12.50;;
45114;SDS011;30877;43.706;10.780;2024-01-15T04:25:46;14.02;;;11.75;;
45114;SDS011;30877;43.706;10.780;2024-01-15T04:29:00;12.73;;;11.38;;
45114;SDS011;30877;43.706;10.780;2024-01-15T04:31:29;13.23;;;10.98;;
45114;SDS011;30877;43.706;10.780;2024-01-15T04:33:58;12.60;;;11.13;;
45114;SDS011;30877;43.706;10.780;2024-01-15T04:36:30;12.60;;;11.30;;
45114;SDS011;30877;43.706;10.780;2024-01-15T04:39:02;13.48;;;11.50;;
45114;SDS011;30877;43.706;10.780;2024-01-15T04:41:34;13.60;;;11.20;;
45114;SDS011;30877;43.706;10.780;2024-01-15T04:44:03;12.27;;;10.48;;
45114;SDS011;30877;43.706;10.780;2024-01-15T04:46:35;11.25;;;9.98;;
45114;SDS011;30877;43.706;10.780;2024-01-15T04:49:04;10.95;;;9.73;;
45114;SDS011;30877;43.706;10.780;2024-01-15T04:51:36;11.80;;;10.25;;
45114;SDS011;30877;43.706;10.780;2024-01-15T04:54:06;13.48;;;10.18;;
45114;SDS011;30877;43.706;10.780;2024-01-15T04:57:09;13.68;;;10.35;;
45114;SDS011;30877;43.706;10.780;2024-01-15T04:59:38;11.25;;;9.90;;
45114;SDS011;30877;43.706;10.780;2024-01-15T05:02:30;13.20;;;10.48;;
45114;SDS011;30877;43.706;10.780;2024-01-15T05:04:59;11.32;;;10.00;;
45114;SDS011;30877;43.706;10.780;2024-01-15T05:07:30;10.38;;;8.82;;
45114;SDS011;30877;43.706;10.780;2024-01-15T05:10:02;9.80;;;8.55;;
45114;SDS011;30877;43.706;10.780;2024-01-15T05:12:49;9.82;;;8.27;;
45114;SDS011;30877;43.706;10.780;2024-01-15T05:15:18;11.57;;;8.63;;
45114;SDS011;30877;43.706;10.780;2024-01-15T05:17:47;9.48;;;7.80;;
45114;SDS011;30877;43.706;10.780;2024-01-15T05:20:16;10.10;;;8.20;;
45114;SDS011;30877;43.706;10.780;2024-01-15T05:23:24;8.50;;;6.85;;
45114;SDS011;30877;43.706;10.780;2024-01-15T05:25:54;10.43;;;6.97;;
45114;SDS011;30877;43.706;10.780;2024-01-15T05:28:23;9.70;;;7.50;;
45114;SDS011;30877;43.706;10.780;2024-01-15T05:30:53;10.32;;;7.45;;
45114;SDS011;30877;43.706;10.780;2024-01-15T05:33:24;10.13;;;7.45;;
45114;SDS011;30877;43.706;10.780;2024-01-15T05:36:37;10.20;;;7.45;;
45114;SDS011;30877;43.706;10.780;2024-01-15T05:39:24;8.90;;;7.60;;
45114;SDS011;30877;43.706;10.780;2024-01-15T05:41:53;9.15;;;8.05;;
45114;SDS011;30877;43.706;10.780;2024-01-15T05:44:23;9.25;;;8.25;;
45114;SDS011;30877;43.706;10.780;2024-01-15T05:47:22;10.43;;;8.75;;
45114;SDS011;30877;43.706;10.780;2024-01-15T05:49:57;10.43;;;9.02;;
45114;SDS011;30877;43.706;10.780;2024-01-15T05:59:56;11.35;;;8.63;;
45114;SDS011;30877;43.706;10.780;2024-01-15T06:02:38;12.32;;;8.85;;
45114;SDS011;30877;43.706;10.780;2024-01-15T06:05:08;11.65;;;9.52;;
45114;SDS011;30877;43.706;10.780;2024-01-15T06:07:37;11.95;;;8.43;;
45114;SDS011;30877;43.706;10.780;2024-01-15T06:12:39;10.75;;;9.07;;
45114;SDS011;30877;43.706;10.780;2024-01-15T06:15:10;10.50;;;9.40;;
45114;SDS011;30877;43.706;10.780;2024-01-15T06:17:57;11.43;;;9.55;;
45114;SDS011;30877;43.706;10.780;2024-01-15T06:20:53;10.05;;;8.65;;
45114;SDS011;30877;43.706;10.780;2024-01-15T06:23:22;12.43;;;10.35;;
45114;SDS011;30877;43.706;10.780;2024-01-15T06:25:53;10.48;;;9.27;;
45114;SDS011;30877;43.706;10.780;2024-01-15T06:28:29;12.05;;;9.70;;
45114;SDS011;30877;43.706;10.780;2024-01-15T06:34:44;12.88;;;10.13;;
45114;SDS011;30877;43.706;10.780;2024-01-15T06:37:13;14.63;;;10.27;;
45114;SDS011;30877;43.706;10.780;2024-01-15T06:39:51;12.27;;;9.95;;
45114;SDS011;30877;43.706;10.780;2024-01-15T06:42:29;12.10;;;10.25;;
45114;SDS011;30877;43.706;10.780;2024-01-15T06:44:58;11.60;;;9.90;;
45114;SDS011;30877;43.706;10.780;2024-01-15T06:47:44;11.80;;;10.38;;
45114;SDS011;30877;43.706;10.780;2024-01-15T06:50:16;13.13;;;9.98;;
45114;SDS011;30877;43.706;10.780;2024-01-15T06:52:49;11.85;;;10.43;;
45114;SDS011;30877;43.706;10.780;2024-01-15T06:55:18;11.48;;;9.98;;
45114;SDS011;30877;43.706;10.780;2024-01-15T06:57:47;11.30;;;9.68;;
45114;SDS011;30877;43.706;10.780;2024-01-15T07:00:17;10.95;;;9.52;;
45114;SDS011;30877;43.706;10.780;2024-01-15T07:02:49;12.13;;;9.70;;
45114;SDS011;30877;43.706;10.780;2024-01-15T07:05:20;13.30;;;11.23;;
45114;SDS011;30877;43.706;10.780;2024-01-15T07:09:13;11.48;;;10.13;;
45114;SDS011;30877;43.706;10.780;2024-01-15T07:11:45;13.13;;;11.48;;
45114;SDS011;30877;43.706;10.780;2024-01-15T07:14:35;13.20;;;9.82;;
45114;SDS011;30877;43.706;10.780;2024-01-15T07:17:29;13.80;;;10.75;;
45114;SDS011;30877;43.706;10.780;2024-01-15T07:20:11;11.60;;;9.43;;
45114;SDS011;30877;43.706;10.780;2024-01-15T07:22:40;13.20;;;10.98;;
45114;SDS011;30877;43.706;10.780;2024-01-15T07:28:23;11.20;;;10.10;;
45114;SDS011;30877;43.706;10.780;2024-01-15T07:30:52;12.43;;;10.73;;
45114;SDS011;30877;43.706;10.780;2024-01-15T07:38:44;12.02;;;10.75;;
45114;SDS011;30877;43.706;10.780;2024-01-15T07:41:47;11.32;;;9.98;;
45114;SDS011;30877;43.706;10.780;2024-01-15T07:44:18;12.75;;;10.63;;
45114;SDS011;30877;43.706;10.780;2024-01-15T07:52:46;14.23;;;11.33;;
45114;SDS011;30877;43.706;10.780;2024-01-15T07:55:18;12.90;;;10.70;;
45114;SDS011;30877;43.706;10.780;2024-01-15T07:57:48;12.90;;;10.95;;
45114;SDS011;30877;43.706;10.780;2024-01-15T08:03:37;13.18;;;10.60;;
45114;SDS011;30877;43.706;10.780;2024-01-15T08:06:07;11.77;;;10.02;;
45114;SDS011;30877;43.706;10.780;2024-01-15T08:08:37;13.15;;;10.63;;
45114;SDS011;30877;43.706;10.780;2024-01-15T08:11:11;12.27;;;10.98;;
45114;SDS011;30877;43.706;10.780;2024-01-15T08:13:40;14.55;;;11.98;;
45114;SDS011;30877;43.706;10.780;2024-01-15T08:16:09;13.55;;;11.57;;
45114;SDS011;30877;43.706;10.780;2024-01-15T08:18:38;14.38;;;11.02;;
45114;SDS011;30877;43.706;10.780;2024-01-15T08:21:09;12.90;;;10.82;;
45114;SDS011;30877;43.706;10.780;2024-01-15T08:23:37;12.82;;;11.38;;
45114;SDS011;30877;43.706;10.780;2024-01-15T08:26:06;13.05;;;11.05;;
45114;SDS011;30877;43.706;10.780;2024-01-15T08:28:38;13.32;;;11.45;;
45114;SDS011;30877;43.706;10.780;2024-01-15T08:31:07;14.80;;;11.25;;
45114;SDS011;30877;43.706;10.780;2024-01-15T08:33:37;12.07;;;10.27;;
45114;SDS011;30877;43.706;10.780;2024-01-15T08:36:06;11.65;;;9.75;;
45114;SDS011;30877;43.706;10.780;2024-01-15T08:38:34;15.05;;;10.43;;
45114;SDS011;30877;43.706;10.780;2024-01-15T08:41:03;11.15;;;9.77;;
45114;SDS011;30877;43.706;10.780;2024-01-15T08:43:31;13.45;;;10.10;;
45114;SDS011;30877;43.706;10.780;2024-01-15T08:46:01;13.82;;;10.85;;
45114;SDS011;30877;43.706;10.780;2024-01-15T08:48:30;13.10;;;11.00;;
45114;SDS011;30877;43.706;10.780;2024-01-15T08:50:58;13.18;;;10.00;;
45114;SDS011;30877;43.706;10.780;2024-01-15T08:53:26;11.82;;;10.25;;
45114;SDS011;30877;43.706;10.780;2024-01-15T08:55:55;15.27;;;11.35;;
45114;SDS011;30877;43.706;10.780;2024-01-15T08:58:23;13.85;;;11.27;;
45114;SDS011;30877;43.706;10.780;2024-01-15T09:00:51;13.73;;;10.70;;
45114;SDS011;30877;43.706;10.780;2024-01-15T09:03:21;12.77;;;10.65;;
45114;SDS011;30877;43.706;10.780;2024-01-15T09:05:49;11.75;;;10.52;;
45114;SDS011;30877;43.706;10.780;2024-01-15T09:08:18;13.02;;;10.27;;
45114;SDS011;30877;43.706;10.780;2024-01-15T09:10:46;12.00;;;10.07;;
45114;SDS011;30877;43.706;10.780;2024-01-15T09:13:14;11.57;;;10.10;;
45114;SDS011;30877;43.706;10.780;2024-01-15T09:15:43;15.60;;;11.32;;
45114;SDS011;30877;43.706;10.780;2024-01-15T09:18:11;13.35;;;10.80;;
45114;SDS011;30877;43.706;10.780;2024-01-15T09:20:42;12.77;;;10.93;;
45114;SDS011;30877;43.706;10.780;2024-01-15T09:23:10;13.43;;;10.30;;
45114;SDS011;30877;43.706;10.780;2024-01-15T09:25:38;11.38;;;10.18;;
45114;SDS011;30877;43.706;10.780;2024-01-15T09:28:06;12.15;;;9.75;;
45114;SDS011;30877;43.706;10.780;2024-01-15T09:30:35;11.27;;;9.70;;
45114;SDS011;30877;43.706;10.780;2024-01-15T09:33:03;12.93;;;10.80;;
45114;SDS011;30877;43.706;10.780;2024-01-15T09:35:32;12.23;;;9.85;;
45114;SDS011;30877;43.706;10.780;2024-01-15T09:38:02;10.82;;;9.35;;
45114;SDS011;30877;43.706;10.780;2024-01-15T09:40:31;11.27;;;10.05;;
45114;SDS011;30877;43.706;10.780;2024-01-15T09:43:00;12.75;;;9.35;;
45114;SDS011;30877;43.706;10.780;2024-01-15T09:45:30;10.85;;;9.43;;
45114;SDS011;30877;43.706;10.780;2024-01-15T09:47:59;10.32;;;9.23;;
45114;SDS011;30877;43.706;10.780;2024-01-15T09:50:27;12.70;;;10.02;;
45114;SDS011;30877;43.706;10.780;2024-01-15T09:52:55;10.38;;;9.20;;
45114;SDS011;30877;43.706;10.780;2024-01-15T09:55:26;10.35;;;9.13;;
45114;SDS011;30877;43.706;10.780;2024-01-15T09:57:55;10.02;;;9.00;;
45114;SDS011;30877;43.706;10.780;2024-01-15T10:00:25;10.38;;;9.13;;
45114;SDS011;30877;43.706;10.780;2024-01-15T10:02:54;16.13;;;10.93;;
45114;SDS011;30877;43.706;10.780;2024-01-15T10:05:23;9.88;;;8.57;;
45114;SDS011;30877;43.706;10.780;2024-01-15T10:07:51;11.98;;;8.95;;
45114;SDS011;30877;43.706;10.780;2024-01-15T10:10:22;11.35;;;9.43;;
45114;SDS011;30877;43.706;10.780;2024-01-15T10:12:51;13.10;;;9.77;;
45114;SDS011;30877;43.706;10.780;2024-01-15T10:15:22;10.90;;;8.77;;
45114;SDS011;30877;43.706;10.780;2024-01-15T10:17:51;14.05;;;9.82;;
45114;SDS011;30877;43.706;10.780;2024-01-15T10:20:19;13.50;;;10.00;;
45114;SDS011;30877;43.706;10.780;2024-01-15T10:22:51;11.82;;;9.13;;
45114;SDS011;30877;43.706;10.780;2024-01-15T10:25:19;10.43;;;9.15;;
45114;SDS011;30877;43.706;10.780;2024-01-15T10:28:01;12.18;;;9.18;;
45114;SDS011;30877;43.706;10.780;2024-01-15T10:30:30;10.82;;;8.60;;
45114;SDS011;30877;43.706;10.780;2024-01-15T10:32:59;12.00;;;9.35;;
45114;SDS011;30877;43.706;10.780;2024-01-15T10:35:29;12.30;;;8.77;;
45114;SDS011;30877;43.706;10.780;2024-01-15T10:37:58;10.55;;;9.18;;
45114;SDS011;30877;43.706;10.780;2024-01-15T10:40:26;11.85;;;9.80;;
45114;SDS011;30877;43.706;10.780;2024-01-15T10:42:55;13.05;;;9.65;;
45114;SDS011;30877;43.706;10.780;2024-01-15T10:45:25;10.45;;;9.35;;
45114;SDS011;30877;43.706;10.780;2024-01-15T10:47:59;11.48;;;8.57;;
45114;SDS011;30877;43.706;10.780;2024-01-15T10:50:29;14.40;;;9.50;;
45114;SDS011;30877;43.706;10.780;2024-01-15T10:52:59;12.82;;;9.30;;
45114;SDS011;30877;43.706;10.780;2024-01-15T10:55:28;11.90;;;9.75;;
45114;SDS011;30877;43.706;10.780;2024-01-15T10:57:58;11.40;;;9.68;;
45114;SDS011;30877;43.706;10.780;2024-01-15T11:00:28;12.57;;;9.48;;
45114;SDS011;30877;43.706;10.780;2024-01-15T11:02:57;13.10;;;10.98;;
45114;SDS011;30877;43.706;10.780;2024-01-15T11:05:29;14.73;;;9.77;;
45114;SDS011;30877;43.706;10.780;2024-01-15T11:08:16;14.20;;;10.57;;
45114;SDS011;30877;43.706;10.780;2024-01-15T11:10:46;11.00;;;9.68;;
45114;SDS011;30877;43.706;10.780;2024-01-15T11:13:19;12.45;;;9.63;;
45114;SDS011;30877;43.706;10.780;2024-01-15T11:16:00;13.27;;;8.77;;
45114;SDS011;30877;43.706;10.780;2024-01-15T11:18:30;11.25;;;8.75;;
45114;SDS011;30877;43.706;10.780;2024-01-15T11:21:25;11.38;;;8.77;;
45114;SDS011;30877;43.706;10.780;2024-01-15T11:23:58;11.55;;;8.13;;
45114;SDS011;30877;43.706;10.780;2024-01-15T11:26:34;11.48;;;8.52;;
45114;SDS011;30877;43.706;10.780;2024-01-15T11:29:05;9.95;;;8.13;;
45114;SDS011;30877;43.706;10.780;2024-01-15T11:34:52;12.07;;;7.78;;
45114;SDS011;30877;43.706;10.780;2024-01-15T11:40:36;9.68;;;7.50;;
45114;SDS011;30877;43.706;10.780;2024-01-15T11:43:06;11.75;;;6.70;;
45114;SDS011;30877;43.706;10.780;2024-01-15T11:45:37;10.02;;;6.82;;
45114;SDS011;30877;43.706;10.780;2024-01-15T11:48:13;10.27;;;7.57;;
45114;SDS011;30877;43.706;10.780;2024-01-15T11:50:44;11.18;;;7.03;;
45114;SDS011;30877;43.706;10.780;2024-01-15T11:53:15;8.85;;;6.60;;
45114;SDS011;30877;43.706;10.780;2024-01-15T11:55:49;10.40;;;7.00;;
45114;SDS011;30877;43.706;10.780;2024-01-15T11:58:23;11.00;;;6.65;;
45114;SDS011;30877;43.706;10.780;2024-01-15T12:00:52;9.40;;;6.40;;
45114;SDS011;30877;43.706;10.780;2024-01-15T12:03:24;10.07;;;7.15;;
45114;SDS011;30877;43.706;10.780;2024-01-15T12:05:53;11.95;;;7.68;;
45114;SDS011;30877;43.706;10.780;2024-01-15T12:08:22;12.55;;;7.47;;
45114;SDS011;30877;43.706;10.780;2024-01-15T12:10:50;9.73;;;6.90;;
45114;SDS011;30877;43.706;10.780;2024-01-15T12:13:19;13.77;;;6.22;;
45114;SDS011;30877;43.706;10.780;2024-01-15T12:15:48;9.50;;;6.10;;
45114;SDS011;30877;43.706;10.780;2024-01-15T12:18:17;10.98;;;6.20;;
45114;SDS011;30877;43.706;10.780;2024-01-15T12:20:48;11.02;;;6.53;;
45114;SDS011;30877;43.706;10.780;2024-01-15T12:23:17;15.48;;;7.25;;
45114;SDS011;30877;43.706;10.780;2024-01-15T12:25:45;10.07;;;6.30;;
45114;SDS011;30877;43.706;10.780;2024-01-15T12:28:16;13.10;;;6.68;;
45114;SDS011;30877;43.706;10.780;2024-01-15T12:30:46;10.23;;;7.00;;
45114;SDS011;30877;43.706;10.780;2024-01-15T12:33:17;11.82;;;7.20;;
45114;SDS011;30877;43.706;10.780;2024-01-15T12:35:52;9.80;;;6.32;;
45114;SDS011;30877;43.706;10.780;2024-01-15T12:38:22;8.10;;;6.10;;
45114;SDS011;30877;43.706;10.780;2024-01-15T12:40:50;10.43;;;6.28;;
45114;SDS011;30877;43.706;10.780;2024-01-15T12:43:18;9.35;;;5.93;;
45114;SDS011;30877;43.706;10.780;2024-01-15T12:45:47;9.07;;;5.47;;
45114;SDS011;30877;43.706;10.780;2024-01-15T12:48:15;13.05;;;5.63;;
45114;SDS011;30877;43.706;10.780;2024-01-15T12:50:45;9.00;;;5.38;;
45114;SDS011;30877;43.706;10.780;2024-01-15T12:53:16;9.40;;;6.15;;
45114;SDS011;30877;43.706;10.780;2024-01-15T12:55:48;9.88;;;4.72;;
45114;SDS011;30877;43.706;10.780;2024-01-15T12:58:16;7.97;;;4.25;;
45114;SDS011;30877;43.706;10.780;2024-01-15T13:00:47;6.95;;;4.53;;
45114;SDS011;30877;43.706;10.780;2024-01-15T13:03:15;7.53;;;4.65;;
45114;SDS011;30877;43.706;10.780;2024-01-15T13:05:44;7.45;;;4.75;;
45114;SDS011;30877;43.706;10.780;2024-01-15T13:08:12;9.18;;;5.03;;
45114;SDS011;30877;43.706;10.780;2024-01-15T13:10:43;12.57;;;5.93;;
45114;SDS011;30877;43.706;10.780;2024-01-15T13:13:11;10.55;;;5.90;;
45114;SDS011;30877;43.706;10.780;2024-01-15T13:15:39;10.40;;;5.22;;
45114;SDS011;30877;43.706;10.780;2024-01-15T13:18:08;10.45;;;4.22;;
45114;SDS011;30877;43.706;10.780;2024-01-15T13:20:37;10.30;;;4.05;;
45114;SDS011;30877;43.706;10.780;2024-01-15T13:23:05;6.43;;;3.67;;
45114;SDS011;30877;43.706;10.780;2024-01-15T13:25:33;6.95;;;3.08;;
45114;SDS011;30877;43.706;10.780;2024-01-15T13:28:06;6.00;;;2.80;;
45114;SDS011;30877;43.706;10.780;2024-01-15T13:30:38;8.32;;;2.92;;
45114;SDS011;30877;43.706;10.780;2024-01-15T13:33:06;5.65;;;2.97;;
45114;SDS011;30877;43.706;10.780;2024-01-15T13:35:35;5.10;;;2.70;;
45114;SDS011;30877;43.706;10.780;2024-01-15T13:38:03;4.28;;;2.60;;
45114;SDS011;30877;43.706;10.780;2024-01-15T13:40:32;5.05;;;2.70;;
45114;SDS011;30877;43.706;10.780;2024-01-15T13:43:01;4.47;;;2.28;;
45114;SDS011;30877;43.706;10.780;2024-01-15T13:45:35;6.68;;;3.15;;
45114;SDS011;30877;43.706;10.780;2024-01-15T13:48:07;6.57;;;3.10;;
45114;SDS011;30877;43.706;10.780;2024-01-15T13:50:35;4.53;;;2.95;;
45114;SDS011;30877;43.706;10.780;2024-01-15T13:53:04;3.33;;;2.65;;
45114;SDS011;30877;43.706;10.780;2024-01-15T13:55:32;5.10;;;2.72;;
45114;SDS011;30877;43.706;10.780;2024-01-15T13:58:00;4.75;;;2.47;;
45114;SDS011;30877;43.706;10.780;2024-01-15T14:00:31;7.57;;;3.13;;
45114;SDS011;30877;43.706;10.780;2024-01-15T14:03:01;4.63;;;2.70;;
45114;SDS011;30877;43.706;10.780;2024-01-15T14:05:29;5.20;;;2.65;;
45114;SDS011;30877;43.706;10.780;2024-01-15T14:07:58;4.78;;;2.83;;
45114;SDS011;30877;43.706;10.780;2024-01-15T14:10:27;5.70;;;3.22;;
45114;SDS011;30877;43.706;10.780;2024-01-15T14:12:55;5.18;;;3.03;;
45114;SDS011;30877;43.706;10.780;2024-01-15T14:15:27;7.25;;;3.38;;
45114;SDS011;30877;43.706;10.780;2024-01-15T14:17:55;7.35;;;3.25;;
45114;SDS011;30877;43.706;10.780;2024-01-15T14:20:27;7.68;;;3.78;;
45114;SDS011;30877;43.706;10.780;2024-01-15T14:22:55;7.47;;;4.47;;
45114;SDS011;30877;43.706;10.780;2024-01-15T14:25:57;5.80;;;3.20;;
45114;SDS011;30877;43.706;10.780;2024-01-15T14:28:25;4.50;;;2.88;;
45114;SDS011;30877;43.706;10.780;2024-01-15T14:30:54;8.30;;;3.67;;
45114;SDS011;30877;43.706;10.780;2024-01-15T14:33:25;7.50;;;3.10;;
45114;SDS011;30877;43.706;10.780;2024-01-15T14:35:55;4.68;;;2.70;;
45114;SDS011;30877;43.706;10.780;2024-01-15T14:38:24;5.53;;;2.83;;
45114;SDS011;30877;43.706;10.780;2024-01-15T14:43:39;5.40;;;2.85;;
45114;SDS011;30877;43.706;10.780;2024-01-15T14:46:07;4.50;;;2.88;;
45114;SDS011;30877;43.706;10.780;2024-01-15T14:48:36;5.68;;;2.95;;
45114;SDS011;30877;43.706;10.780;2024-01-15T14:51:07;4.13;;;2.72;;
45114;SDS011;30877;43.706;10.780;2024-01-15T14:53:37;5.63;;;2.78;;
45114;SDS011;30877;43.706;10.780;2024-01-15T14:56:06;8.30;;;4.43;;
45114;SDS011;30877;43.706;10.780;2024-01-15T14:58:35;7.50;;;3.45;;
45114;SDS011;30877;43.706;10.780;2024-01-15T15:01:03;6.70;;;3.90;;
45114;SDS011;30877;43.706;10.780;2024-01-15T15:03:31;8.43;;;4.40;;
45114;SDS011;30877;43.706;10.780;2024-01-15T15:06:00;7.85;;;3.67;;
45114;SDS011;30877;43.706;10.780;2024-01-15T15:08:30;9.63;;;5.55;;
45114;SDS011;30877;43.706;10.780;2024-01-15T15:10:58;9.52;;;4.93;;
45114;SDS011;30877;43.706;10.780;2024-01-15T15:13:28;6.53;;;4.28;;
45114;SDS011;30877;43.706;10.780;2024-01-15T15:16:10;5.72;;;3.40;;
45114;SDS011;30877;43.706;10.780;2024-01-15T15:18:41;7.07;;;4.15;;
45114;SDS011;30877;43.706;10.780;2024-01-15T15:21:13;9.07;;;4.65;;
45114;SDS011;30877;43.706;10.780;2024-01-15T15:23:43;16.02;;;7.93;;
45114;SDS011;30877;43.706;10.780;2024-01-15T15:26:12;14.80;;;7.63;;
45114;SDS011;30877;43.706;10.780;2024-01-15T15:28:40;11.23;;;5.05;;
45114;SDS011;30877;43.706;10.780;2024-01-15T15:31:08;10.93;;;5.30;;
45114;SDS011;30877;43.706;10.780;2024-01-15T15:33:40;10.05;;;4.43;;
45114;SDS011;30877;43.706;10.780;2024-01-15T15:36:09;12.32;;;7.30;;
45114;SDS011;30877;43.706;10.780;2024-01-15T15:38:37;18.27;;;10.18;;
45114;SDS011;30877;43.706;10.780;2024-01-15T15:41:08;25.42;;;13.23;;
45114;SDS011;30877;43.706;10.780;2024-01-15T15:43:37;17.35;;;9.32;;
45114;SDS011;30877;43.706;10.780;2024-01-15T15:46:06;16.40;;;10.23;;
45114;SDS011;30877;43.706;10.780;2024-01-15T15:48:35;12.32;;;6.72;;
45114;SDS011;30877;43.706;10.780;2024-01-15T15:51:05;9.43;;;6.38;;
45114;SDS011;30877;43.706;10.780;2024-01-15T15:53:34;9.15;;;5.85;;
45114;SDS011;30877;43.706;10.780;2024-01-15T15:56:02;12.40;;;8.02;;
45114;SDS011;30877;43.706;10.780;2024-01-15T15:58:32;9.65;;;5.50;;
45114;SDS011;30877;43.706;10.780;2024-01-15T16:01:00;12.10;;;6.80;;
45114;SDS011;30877;43.706;10.780;2024-01-15T16:03:29;13.93;;;9.10;;
45114;SDS011;30877;43.706;10.780;2024-01-15T16:05:57;20.52;;;14.63;;
45114;SDS011;30877;43.706;10.780;2024-01-15T16:08:26;26.73;;;17.60;;
45114;SDS011;30877;43.706;10.780;2024-01-15T16:10:54;12.43;;;9.90;;